sensor_id;sensor_type;location;lat;lon;timestamp;P1;durP1;ratioP1;P2;durP2;ratioP2
4232;SDS011;2130;48.472;11.934;2024-02-21T00:02:24;13.03;;;1.83;;
4232;SDS011;2130;48.472;11.934;2024-02-21T00:04:52;8.93;;;1.50;;
4232;SDS011;2130;48.472;11.934;2024-02-21T00:07:20;8.37;;;1.47;;
4232;SDS011;2130;48.472;11.934;2024-02-21T00:09:48;7.70;;;1.20;;
4232;SDS011;2130;48.472;11.934;2024-02-21T00:12:16;7.73;;;1.50;;
4232;SDS011;2130;48.472;11.934;2024-02-21T00:14:45;9.63;;;1.47;;
4232;SDS011;2130;48.472;11.934;2024-02-21T00:17:13;8.27;;;1.40;;
4232;SDS011;2130;48.472;11.934;2024-02-21T00:19:42;7.97;;;1.47;;
4232;SDS011;2130;48.472;11.934;2024-02-21T00:22:10;8.20;;;1.60;;
4232;SDS011;2130;48.472;11.934;2024-02-21T00:24:38;11.90;;;1.80;;
4232;SDS011;2130;48.472;11.934;2024-02-21T00:27:06;8.20;;;1.27;;
4232;SDS011;2130;48.472;11.934;2024-02-21T00:29:34;8.00;;;1.90;;
4232;SDS011;2130;48.472;11.934;2024-02-21T00:32:03;7.80;;;1.37;;
4232;SDS011;2130;48.472;11.934;2024-02-21T00:34:31;7.60;;;1.30;;
4232;SDS011;2130;48.472;11.934;2024-02-21T00:37:00;7.80;;;1.50;;
4232;SDS011;2130;48.472;11.934;2024-02-21T00:39:28;7.33;;;1.13;;
4232;SDS011;2130;48.472;11.934;2024-02-21T00:41:56;8.53;;;1.60;;
4232;SDS011;2130;48.472;11.934;2024-02-21T00:44:24;9.73;;;1.50;;
4232;SDS011;2130;48.472;11.934;2024-02-21T00:46:52;7.10;;;1.00;;
4232;SDS011;2130;48.472;11.934;2024-02-21T00:49:21;7.57;;;1.43;;
4232;SDS011;2130;48.472;11.934;2024-02-21T00:51:49;12.73;;;1.47;;
4232;SDS011;2130;48.472;11.934;2024-02-21T00:54:18;7.63;;;1.63;;
4232;SDS011;2130;48.472;11.934;2024-02-21T00:56:46;7.70;;;1.50;;
4232;SDS011;2130;48.472;11.934;2024-02-21T00:59:14;7.80;;;1.33;;
4232;SDS011;2130;48.472;11.934;2024-02-21T01:01:43;8.40;;;1.77;;
4232;SDS011;2130;48.472;11.934;2024-02-21T01:04:11;8.93;;;1.50;;
4232;SDS011;2130;48.472;11.934;2024-02-21T01:06:39;12.03;;;1.50;;
4232;SDS011;2130;48.472;11.934;2024-02-21T01:09:10;7.07;;;1.10;;
4232;SDS011;2130;48.472;11.934;2024-02-21T01:11:40;7.60;;;1.30;;
4232;SDS011;2130;48.472;11.934;2024-02-21T01:14:08;7.50;;;1.33;;
4232;SDS011;2130;48.472;11.934;2024-02-21T01:16:37;8.20;;;1.40;;
4232;SDS011;2130;48.472;11.934;2024-02-21T01:19:05;7.13;;;1.37;;
4232;SDS011;2130;48.472;11.934;2024-02-21T01:21:33;7.10;;;1.13;;
4232;SDS011;2130;48.472;11.934;2024-02-21T01:24:01;7.37;;;1.20;;
4232;SDS011;2130;48.472;11.934;2024-02-21T01:26:30;10.33;;;1.40;;
4232;SDS011;2130;48.472;11.934;2024-02-21T01:29:00;10.50;;;1.40;;
4232;SDS011;2130;48.472;11.934;2024-02-21T01:31:28;9.17;;;1.30;;
4232;SDS011;2130;48.472;11.934;2024-02-21T01:33:56;9.07;;;1.37;;
4232;SDS011;2130;48.472;11.934;2024-02-21T01:36:24;7.50;;;1.43;;
4232;SDS011;2130;48.472;11.934;2024-02-21T01:38:52;9.70;;;1.30;;
4232;SDS011;2130;48.472;11.934;2024-02-21T01:41:20;7.27;;;1.27;;
4232;SDS011;2130;48.472;11.934;2024-02-21T01:43:48;8.03;;;1.37;;
4232;SDS011;2130;48.472;11.934;2024-02-21T01:46:18;9.00;;;1.50;;
4232;SDS011;2130;48.472;11.934;2024-02-21T01:48:46;7.80;;;1.30;;
4232;SDS011;2130;48.472;11.934;2024-02-21T01:51:14;7.90;;;1.50;;
4232;SDS011;2130;48.472;11.934;2024-02-21T01:53:43;7.70;;;1.00;;
4232;SDS011;2130;48.472;11.934;2024-02-21T01:56:11;8.17;;;1.23;;
4232;SDS011;2130;48.472;11.934;2024-02-21T01:58:40;7.30;;;1.20;;
4232;SDS011;2130;48.472;11.934;2024-02-21T02:01:12;8.23;;;1.33;;
4232;SDS011;2130;48.472;11.934;2024-02-21T02:03:46;8.13;;;1.33;;
4232;SDS011;2130;48.472;11.934;2024-02-21T02:06:15;7.80;;;1.40;;
4232;SDS011;2130;48.472;11.934;2024-02-21T02:08:43;7.57;;;1.17;;
4232;SDS011;2130;48.472;11.934;2024-02-21T02:11:13;12.47;;;1.70;;
4232;SDS011;2130;48.472;11.934;2024-02-21T02:13:41;9.17;;;1.53;;
4232;SDS011;2130;48.472;11.934;2024-02-21T02:16:09;8.50;;;1.40;;
4232;SDS011;2130;48.472;11.934;2024-02-21T02:18:37;8.67;;;1.50;;
4232;SDS011;2130;48.472;11.934;2024-02-21T02:21:10;9.20;;;1.50;;
4232;SDS011;2130;48.472;11.934;2024-02-21T02:23:42;7.90;;;1.13;;
4232;SDS011;2130;48.472;11.934;2024-02-21T02:26:10;7.40;;;1.17;;
4232;SDS011;2130;48.472;11.934;2024-02-21T02:28:38;7.80;;;1.30;;
4232;SDS011;2130;48.472;11.934;2024-02-21T02:31:06;7.80;;;1.30;;
4232;SDS011;2130;48.472;11.934;2024-02-21T02:33:34;7.50;;;1.20;;
4232;SDS011;2130;48.472;11.934;2024-02-21T02:36:02;7.70;;;1.23;;
4232;SDS011;2130;48.472;11.934;2024-02-21T02:38:30;8.33;;;1.40;;
4232;SDS011;2130;48.472;11.934;2024-02-21T02:41:00;11.00;;;1.30;;
4232;SDS011;2130;48.472;11.934;2024-02-21T02:43:28;9.00;;;1.37;;
4232;SDS011;2130;48.472;11.934;2024-02-21T02:45:56;11.37;;;1.40;;
4232;SDS011;2130;48.472;11.934;2024-02-21T02:48:24;7.60;;;1.20;;
4232;SDS011;2130;48.472;11.934;2024-02-21T02:50:52;8.07;;;1.47;;
4232;SDS011;2130;48.472;11.934;2024-02-21T02:53:20;7.83;;;1.20;;
4232;SDS011;2130;48.472;11.934;2024-02-21T02:55:48;7.70;;;1.17;;
4232;SDS011;2130;48.472;11.934;2024-02-21T02:58:17;9.20;;;1.40;;
4232;SDS011;2130;48.472;11.934;2024-02-21T03:00:45;7.83;;;1.10;;
4232;SDS011;2130;48.472;11.934;2024-02-21T03:03:13;7.50;;;1.23;;
4232;SDS011;2130;48.472;11.934;2024-02-21T03:05:41;9.57;;;1.23;;
4232;SDS011;2130;48.472;11.934;2024-02-21T03:08:10;7.40;;;0.80;;
4232;SDS011;2130;48.472;11.934;2024-02-21T03:10:38;10.83;;;1.10;;
4232;SDS011;2130;48.472;11.934;2024-02-21T03:13:06;7.87;;;1.23;;
4232;SDS011;2130;48.472;11.934;2024-02-21T03:15:35;7.20;;;1.10;;
4232;SDS011;2130;48.472;11.934;2024-02-21T03:18:03;7.30;;;1.17;;
4232;SDS011;2130;48.472;11.934;2024-02-21T03:20:32;8.13;;;1.10;;
4232;SDS011;2130;48.472;11.934;2024-02-21T03:23:00;8.83;;;1.47;;
4232;SDS011;2130;48.472;11.934;2024-02-21T03:25:28;8.60;;;1.10;;
4232;SDS011;2130;48.472;11.934;2024-02-21T03:27:56;7.60;;;1.23;;
4232;SDS011;2130;48.472;11.934;2024-02-21T03:30:24;16.43;;;1.67;;
4232;SDS011;2130;48.472;11.934;2024-02-21T03:32:53;7.50;;;1.23;;
4232;SDS011;2130;48.472;11.934;2024-02-21T03:35:21;10.17;;;1.20;;
4232;SDS011;2130;48.472;11.934;2024-02-21T03:37:53;12.07;;;1.40;;
4232;SDS011;2130;48.472;11.934;2024-02-21T03:40:21;8.50;;;1.43;;
4232;SDS011;2130;48.472;11.934;2024-02-21T03:42:49;10.23;;;1.67;;
4232;SDS011;2130;48.472;11.934;2024-02-21T03:45:17;9.53;;;1.20;;
4232;SDS011;2130;48.472;11.934;2024-02-21T03:47:46;9.20;;;1.10;;
4232;SDS011;2130;48.472;11.934;2024-02-21T03:50:15;9.90;;;1.50;;
4232;SDS011;2130;48.472;11.934;2024-02-21T03:52:43;7.80;;;1.10;;
4232;SDS011;2130;48.472;11.934;2024-02-21T03:55:11;8.63;;;1.40;;
4232;SDS011;2130;48.472;11.934;2024-02-21T03:57:39;8.90;;;1.30;;
4232;SDS011;2130;48.472;11.934;2024-02-21T04:00:26;7.50;;;1.10;;
4232;SDS011;2130;48.472;11.934;2024-02-21T04:02:54;7.70;;;1.00;;
4232;SDS011;2130;48.472;11.934;2024-02-21T04:05:23;7.60;;;1.00;;
4232;SDS011;2130;48.472;11.934;2024-02-21T04:07:53;7.40;;;1.10;;
4232;SDS011;2130;48.472;11.934;2024-02-21T04:10:21;10.40;;;1.23;;
4232;SDS011;2130;48.472;11.934;2024-02-21T04:12:49;10.73;;;1.20;;
4232;SDS011;2130;48.472;11.934;2024-02-21T04:15:17;7.50;;;1.10;;
4232;SDS011;2130;48.472;11.934;2024-02-21T04:17:46;7.57;;;1.20;;
4232;SDS011;2130;48.472;11.934;2024-02-21T04:20:15;7.23;;;0.97;;
4232;SDS011;2130;48.472;11.934;2024-02-21T04:22:45;8.57;;;1.20;;
4232;SDS011;2130;48.472;11.934;2024-02-21T04:25:13;9.57;;;1.00;;
4232;SDS011;2130;48.472;11.934;2024-02-21T04:27:41;9.10;;;1.20;;
4232;SDS011;2130;48.472;11.934;2024-02-21T04:30:10;7.30;;;1.03;;
4232;SDS011;2130;48.472;11.934;2024-02-21T04:32:39;8.87;;;1.30;;
4232;SDS011;2130;48.472;11.934;2024-02-21T04:35:07;7.33;;;1.00;;
4232;SDS011;2130;48.472;11.934;2024-02-21T04:37:35;12.90;;;1.40;;
4232;SDS011;2130;48.472;11.934;2024-02-21T04:40:05;19.73;;;1.30;;
4232;SDS011;2130;48.472;11.934;2024-02-21T04:42:34;9.00;;;1.10;;
4232;SDS011;2130;48.472;11.934;2024-02-21T04:45:02;9.17;;;1.50;;
4232;SDS011;2130;48.472;11.934;2024-02-21T04:47:31;8.73;;;1.10;;
4232;SDS011;2130;48.472;11.934;2024-02-21T04:49:59;8.13;;;1.13;;
4232;SDS011;2130;48.472;11.934;2024-02-21T04:52:27;10.30;;;1.13;;
4232;SDS011;2130;48.472;11.934;2024-02-21T04:54:56;8.63;;;1.20;;
4232;SDS011;2130;48.472;11.934;2024-02-21T04:57:25;7.30;;;1.20;;
4232;SDS011;2130;48.472;11.934;2024-02-21T04:59:53;8.57;;;1.10;;
4232;SDS011;2130;48.472;11.934;2024-02-21T05:02:21;10.20;;;1.13;;
4232;SDS011;2130;48.472;11.934;2024-02-21T05:04:51;8.50;;;1.23;;
4232;SDS011;2130;48.472;11.934;2024-02-21T05:07:19;9.33;;;1.30;;
4232;SDS011;2130;48.472;11.934;2024-02-21T05:09:47;11.10;;;1.40;;
4232;SDS011;2130;48.472;11.934;2024-02-21T05:12:15;7.30;;;1.10;;
4232;SDS011;2130;48.472;11.934;2024-02-21T05:14:44;7.63;;;1.00;;
4232;SDS011;2130;48.472;11.934;2024-02-21T05:17:12;8.30;;;0.90;;
4232;SDS011;2130;48.472;11.934;2024-02-21T05:19:40;7.80;;;1.00;;
4232;SDS011;2130;48.472;11.934;2024-02-21T05:22:08;10.53;;;1.60;;
4232;SDS011;2130;48.472;11.934;2024-02-21T05:24:38;8.70;;;1.60;;
4232;SDS011;2130;48.472;11.934;2024-02-21T05:27:06;8.67;;;1.30;;
4232;SDS011;2130;48.472;11.934;2024-02-21T05:29:34;7.97;;;1.50;;
4232;SDS011;2130;48.472;11.934;2024-02-21T05:32:04;11.50;;;1.43;;
4232;SDS011;2130;48.472;11.934;2024-02-21T05:34:32;7.97;;;1.10;;
4232;SDS011;2130;48.472;11.934;2024-02-21T05:37:01;9.03;;;1.27;;
4232;SDS011;2130;48.472;11.934;2024-02-21T05:39:29;7.47;;;1.20;;
4232;SDS011;2130;48.472;11.934;2024-02-21T05:41:57;7.23;;;1.10;;
4232;SDS011;2130;48.472;11.934;2024-02-21T05:44:25;12.60;;;1.10;;
4232;SDS011;2130;48.472;11.934;2024-02-21T05:46:53;8.63;;;1.53;;
4232;SDS011;2130;48.472;11.934;2024-02-21T05:49:23;9.00;;;1.50;;
4232;SDS011;2130;48.472;11.934;2024-02-21T05:51:51;8.13;;;1.07;;
4232;SDS011;2130;48.472;11.934;2024-02-21T05:54:19;8.80;;;1.60;;
4232;SDS011;2130;48.472;11.934;2024-02-21T05:56:47;9.00;;;1.23;;
4232;SDS011;2130;48.472;11.934;2024-02-21T05:59:15;8.50;;;1.50;;
4232;SDS011;2130;48.472;11.934;2024-02-21T06:01:43;9.57;;;1.13;;
4232;SDS011;2130;48.472;11.934;2024-02-21T06:04:11;8.80;;;1.30;;
4232;SDS011;2130;48.472;11.934;2024-02-21T06:06:41;9.03;;;1.23;;
4232;SDS011;2130;48.472;11.934;2024-02-21T06:09:09;7.77;;;1.10;;
4232;SDS011;2130;48.472;11.934;2024-02-21T06:11:37;7.50;;;1.00;;
4232;SDS011;2130;48.472;11.934;2024-02-21T06:14:05;9.00;;;1.50;;
4232;SDS011;2130;48.472;11.934;2024-02-21T06:16:33;10.67;;;1.97;;
4232;SDS011;2130;48.472;11.934;2024-02-21T06:19:02;7.87;;;1.03;;
4232;SDS011;2130;48.472;11.934;2024-02-21T06:21:34;7.70;;;1.20;;
4232;SDS011;2130;48.472;11.934;2024-02-21T06:24:04;9.53;;;1.80;;
4232;SDS011;2130;48.472;11.934;2024-02-21T06:26:32;7.47;;;1.07;;
4232;SDS011;2130;48.472;11.934;2024-02-21T06:29:00;11.73;;;1.53;;
4232;SDS011;2130;48.472;11.934;2024-02-21T06:31:29;9.63;;;1.27;;
4232;SDS011;2130;48.472;11.934;2024-02-21T06:33:58;8.13;;;1.10;;
4232;SDS011;2130;48.472;11.934;2024-02-21T06:36:27;8.10;;;1.10;;
4232;SDS011;2130;48.472;11.934;2024-02-21T06:38:55;8.80;;;1.33;;
4232;SDS011;2130;48.472;11.934;2024-02-21T06:41:24;7.43;;;1.03;;
4232;SDS011;2130;48.472;11.934;2024-02-21T06:43:52;8.63;;;1.40;;
4232;SDS011;2130;48.472;11.934;2024-02-21T06:46:24;7.87;;;1.40;;
4232;SDS011;2130;48.472;11.934;2024-02-21T06:48:52;8.30;;;1.10;;
4232;SDS011;2130;48.472;11.934;2024-02-21T06:51:21;7.37;;;1.00;;
4232;SDS011;2130;48.472;11.934;2024-02-21T06:53:49;7.40;;;1.03;;
4232;SDS011;2130;48.472;11.934;2024-02-21T06:56:17;8.60;;;1.00;;
4232;SDS011;2130;48.472;11.934;2024-02-21T06:58:46;8.63;;;1.30;;
4232;SDS011;2130;48.472;11.934;2024-02-21T07:01:14;8.00;;;1.20;;
4232;SDS011;2130;48.472;11.934;2024-02-21T07:03:42;7.90;;;1.00;;
4232;SDS011;2130;48.472;11.934;2024-02-21T07:06:10;7.43;;;1.00;;
4232;SDS011;2130;48.472;11.934;2024-02-21T07:08:39;8.23;;;1.10;;
4232;SDS011;2130;48.472;11.934;2024-02-21T07:11:07;8.00;;;1.00;;
4232;SDS011;2130;48.472;11.934;2024-02-21T07:13:35;8.30;;;1.10;;
4232;SDS011;2130;48.472;11.934;2024-02-21T07:16:05;8.57;;;1.10;;
4232;SDS011;2130;48.472;11.934;2024-02-21T07:18:33;8.37;;;1.00;;
4232;SDS011;2130;48.472;11.934;2024-02-21T07:21:02;9.20;;;1.00;;
4232;SDS011;2130;48.472;11.934;2024-02-21T07:23:30;7.30;;;1.00;;
4232;SDS011;2130;48.472;11.934;2024-02-21T07:25:58;7.80;;;0.90;;
4232;SDS011;2130;48.472;11.934;2024-02-21T07:28:27;8.33;;;0.97;;
4232;SDS011;2130;48.472;11.934;2024-02-21T07:30:55;8.07;;;0.97;;
4232;SDS011;2130;48.472;11.934;2024-02-21T07:33:24;8.70;;;0.97;;
4232;SDS011;2130;48.472;11.934;2024-02-21T07:35:52;8.27;;;1.10;;
4232;SDS011;2130;48.472;11.934;2024-02-21T07:38:20;11.80;;;1.30;;
4232;SDS011;2130;48.472;11.934;2024-02-21T07:40:49;8.60;;;1.00;;
4232;SDS011;2130;48.472;11.934;2024-02-21T07:43:17;8.60;;;0.90;;
4232;SDS011;2130;48.472;11.934;2024-02-21T07:45:45;8.60;;;1.00;;
4232;SDS011;2130;48.472;11.934;2024-02-21T07:48:13;9.00;;;0.90;;
4232;SDS011;2130;48.472;11.934;2024-02-21T07:50:42;11.43;;;1.10;;
4232;SDS011;2130;48.472;11.934;2024-02-21T07:53:10;9.30;;;0.90;;
4232;SDS011;2130;48.472;11.934;2024-02-21T07:55:39;10.07;;;1.00;;
4232;SDS011;2130;48.472;11.934;2024-02-21T07:58:06;11.60;;;0.97;;
4232;SDS011;2130;48.472;11.934;2024-02-21T08:00:35;10.20;;;1.00;;
4232;SDS011;2130;48.472;11.934;2024-02-21T08:03:03;11.20;;;1.10;;
4232;SDS011;2130;48.472;11.934;2024-02-21T08:05:33;11.23;;;1.03;;
4232;SDS011;2130;48.472;11.934;2024-02-21T08:08:03;11.70;;;0.90;;
4232;SDS011;2130;48.472;11.934;2024-02-21T08:10:32;13.03;;;1.13;;
4232;SDS011;2130;48.472;11.934;2024-02-21T08:13:00;11.33;;;1.10;;
4232;SDS011;2130;48.472;11.934;2024-02-21T08:15:28;11.50;;;0.90;;
4232;SDS011;2130;48.472;11.934;2024-02-21T08:17:56;12.43;;;1.07;;
4232;SDS011;2130;48.472;11.934;2024-02-21T08:20:28;13.47;;;1.00;;
4232;SDS011;2130;48.472;11.934;2024-02-21T08:22:56;14.73;;;1.17;;
4232;SDS011;2130;48.472;11.934;2024-02-21T08:25:25;15.30;;;1.30;;
4232;SDS011;2130;48.472;11.934;2024-02-21T08:27:55;13.60;;;0.90;;
4232;SDS011;2130;48.472;11.934;2024-02-21T08:30:25;15.13;;;1.13;;
4232;SDS011;2130;48.472;11.934;2024-02-21T08:32:53;13.80;;;1.00;;
4232;SDS011;2130;48.472;11.934;2024-02-21T08:35:21;15.70;;;1.10;;
4232;SDS011;2130;48.472;11.934;2024-02-21T08:37:50;14.03;;;1.00;;
4232;SDS011;2130;48.472;11.934;2024-02-21T08:40:18;16.30;;;1.53;;
4232;SDS011;2130;48.472;11.934;2024-02-21T08:42:49;18.70;;;1.50;;
4232;SDS011;2130;48.472;11.934;2024-02-21T08:45:17;16.77;;;1.20;;
4232;SDS011;2130;48.472;11.934;2024-02-21T08:47:45;16.43;;;1.20;;
4232;SDS011;2130;48.472;11.934;2024-02-21T08:50:13;15.40;;;1.10;;
4232;SDS011;2130;48.472;11.934;2024-02-21T08:52:53;17.80;;;1.10;;
4232;SDS011;2130;48.472;11.934;2024-02-21T08:55:22;16.47;;;1.00;;
4232;SDS011;2130;48.472;11.934;2024-02-21T08:57:52;17.83;;;1.13;;
4232;SDS011;2130;48.472;11.934;2024-02-21T09:00:20;20.20;;;1.60;;
4232;SDS011;2130;48.472;11.934;2024-02-21T09:02:54;17.93;;;1.30;;
4232;SDS011;2130;48.472;11.934;2024-02-21T09:05:23;18.90;;;1.20;;
4232;SDS011;2130;48.472;11.934;2024-02-21T09:07:52;24.83;;;1.53;;
4232;SDS011;2130;48.472;11.934;2024-02-21T09:10:20;20.77;;;1.37;;
4232;SDS011;2130;48.472;11.934;2024-02-21T09:12:48;18.87;;;1.20;;
4232;SDS011;2130;48.472;11.934;2024-02-21T09:15:18;23.03;;;1.47;;
4232;SDS011;2130;48.472;11.934;2024-02-21T09:17:46;20.00;;;1.40;;
4232;SDS011;2130;48.472;11.934;2024-02-21T09:20:14;21.80;;;1.50;;
4232;SDS011;2130;48.472;11.934;2024-02-21T09:22:43;21.50;;;1.30;;
4232;SDS011;2130;48.472;11.934;2024-02-21T09:25:11;22.13;;;1.27;;
4232;SDS011;2130;48.472;11.934;2024-02-21T09:27:39;26.83;;;1.63;;
4232;SDS011;2130;48.472;11.934;2024-02-21T09:30:08;23.13;;;1.63;;
4232;SDS011;2130;48.472;11.934;2024-02-21T09:32:38;23.90;;;2.00;;
4232;SDS011;2130;48.472;11.934;2024-02-21T09:35:06;22.70;;;1.70;;
4232;SDS011;2130;48.472;11.934;2024-02-21T09:37:35;26.93;;;2.03;;
4232;SDS011;2130;48.472;11.934;2024-02-21T09:40:05;24.23;;;1.83;;
4232;SDS011;2130;48.472;11.934;2024-02-21T09:42:36;26.63;;;2.17;;
4232;SDS011;2130;48.472;11.934;2024-02-21T09:45:07;25.73;;;2.27;;
4232;SDS011;2130;48.472;11.934;2024-02-21T09:47:42;24.40;;;1.60;;
4232;SDS011;2130;48.472;11.934;2024-02-21T09:50:22;31.93;;;2.63;;
4232;SDS011;2130;48.472;11.934;2024-02-21T09:52:51;24.40;;;1.77;;
4232;SDS011;2130;48.472;11.934;2024-02-21T09:55:20;29.53;;;2.33;;
4232;SDS011;2130;48.472;11.934;2024-02-21T09:57:48;26.50;;;2.07;;
4232;SDS011;2130;48.472;11.934;2024-02-21T10:00:17;28.03;;;2.00;;
4232;SDS011;2130;48.472;11.934;2024-02-21T10:02:50;30.23;;;2.07;;
4232;SDS011;2130;48.472;11.934;2024-02-21T10:05:18;27.00;;;1.90;;
4232;SDS011;2130;48.472;11.934;2024-02-21T10:07:46;27.73;;;2.07;;
4232;SDS011;2130;48.472;11.934;2024-02-21T10:10:15;21.80;;;1.53;;
4232;SDS011;2130;48.472;11.934;2024-02-21T10:12:49;26.03;;;1.97;;
4232;SDS011;2130;48.472;11.934;2024-02-21T10:15:19;25.50;;;2.60;;
4232;SDS011;2130;48.472;11.934;2024-02-21T10:17:53;24.63;;;1.90;;
4232;SDS011;2130;48.472;11.934;2024-02-21T10:20:27;26.07;;;2.10;;
4232;SDS011;2130;48.472;11.934;2024-02-21T10:23:01;22.47;;;1.73;;
4232;SDS011;2130;48.472;11.934;2024-02-21T10:25:34;23.83;;;2.00;;
4232;SDS011;2130;48.472;11.934;2024-02-21T10:28:05;23.03;;;1.53;;
4232;SDS011;2130;48.472;11.934;2024-02-21T10:30:33;21.43;;;1.20;;
4232;SDS011;2130;48.472;11.934;2024-02-21T10:33:03;21.90;;;1.77;;
4232;SDS011;2130;48.472;11.934;2024-02-21T10:35:33;20.20;;;1.10;;
4232;SDS011;2130;48.472;11.934;2024-02-21T10:38:02;21.13;;;1.20;;
4232;SDS011;2130;48.472;11.934;2024-02-21T10:40:30;20.20;;;1.20;;
4232;SDS011;2130;48.472;11.934;2024-02-21T10:42:59;20.60;;;1.30;;
4232;SDS011;2130;48.472;11.934;2024-02-21T10:45:29;20.53;;;1.33;;
4232;SDS011;2130;48.472;11.934;2024-02-21T10:48:08;17.50;;;1.10;;
4232;SDS011;2130;48.472;11.934;2024-02-21T10:50:41;16.30;;;1.10;;
4232;SDS011;2130;48.472;11.934;2024-02-21T10:53:19;22.00;;;1.67;;
4232;SDS011;2130;48.472;11.934;2024-02-21T10:55:54;22.13;;;1.30;;
4232;SDS011;2130;48.472;11.934;2024-02-21T10:58:26;18.83;;;1.30;;
4232;SDS011;2130;48.472;11.934;2024-02-21T11:00:56;19.50;;;1.10;;
4232;SDS011;2130;48.472;11.934;2024-02-21T11:03:26;20.23;;;1.20;;
4232;SDS011;2130;48.472;11.934;2024-02-21T11:05:54;18.10;;;1.00;;
4232;SDS011;2130;48.472;11.934;2024-02-21T11:08:22;18.90;;;1.07;;
4232;SDS011;2130;48.472;11.934;2024-02-21T11:10:56;15.90;;;1.00;;
4232;SDS011;2130;48.472;11.934;2024-02-21T11:13:29;19.43;;;1.17;;
4232;SDS011;2130;48.472;11.934;2024-02-21T11:16:08;16.33;;;1.20;;
4232;SDS011;2130;48.472;11.934;2024-02-21T11:18:38;15.13;;;1.00;;
4232;SDS011;2130;48.472;11.934;2024-02-21T11:21:07;17.33;;;1.30;;
4232;SDS011;2130;48.472;11.934;2024-02-21T11:23:35;14.30;;;1.03;;
4232;SDS011;2130;48.472;11.934;2024-02-21T11:26:04;13.40;;;0.90;;
4232;SDS011;2130;48.472;11.934;2024-02-21T11:28:33;13.83;;;1.10;;
4232;SDS011;2130;48.472;11.934;2024-02-21T11:31:10;13.20;;;1.00;;
4232;SDS011;2130;48.472;11.934;2024-02-21T11:33:41;14.83;;;0.90;;
4232;SDS011;2130;48.472;11.934;2024-02-21T11:36:10;13.10;;;1.00;;
4232;SDS011;2130;48.472;11.934;2024-02-21T11:38:38;12.70;;;1.10;;
4232;SDS011;2130;48.472;11.934;2024-02-21T11:41:07;12.50;;;0.93;;
4232;SDS011;2130;48.472;11.934;2024-02-21T11:43:38;12.40;;;0.93;;
4232;SDS011;2130;48.472;11.934;2024-02-21T11:46:08;11.70;;;0.97;;
4232;SDS011;2130;48.472;11.934;2024-02-21T11:48:36;11.80;;;0.90;;
4232;SDS011;2130;48.472;11.934;2024-02-21T11:51:06;11.93;;;0.90;;
4232;SDS011;2130;48.472;11.934;2024-02-21T11:53:34;11.80;;;1.00;;
4232;SDS011;2130;48.472;11.934;2024-02-21T11:56:13;12.30;;;1.00;;
4232;SDS011;2130;48.472;11.934;2024-02-21T11:58:41;11.20;;;0.90;;
4232;SDS011;2130;48.472;11.934;2024-02-21T12:01:10;10.97;;;0.97;;
4232;SDS011;2130;48.472;11.934;2024-02-21T12:03:38;10.53;;;0.80;;
4232;SDS011;2130;48.472;11.934;2024-02-21T12:06:09;10.33;;;0.90;;
4232;SDS011;2130;48.472;11.934;2024-02-21T12:08:41;10.57;;;1.00;;
4232;SDS011;2130;48.472;11.934;2024-02-21T12:11:19;11.67;;;0.90;;
4232;SDS011;2130;48.472;11.934;2024-02-21T12:13:58;11.90;;;1.10;;
4232;SDS011;2130;48.472;11.934;2024-02-21T12:16:27;10.60;;;0.80;;
4232;SDS011;2130;48.472;11.934;2024-02-21T12:18:56;9.73;;;0.90;;
4232;SDS011;2130;48.472;11.934;2024-02-21T12:21:26;9.63;;;0.90;;
4232;SDS011;2130;48.472;11.934;2024-02-21T12:23:57;10.30;;;0.80;;
4232;SDS011;2130;48.472;11.934;2024-02-21T12:26:25;11.30;;;1.00;;
4232;SDS011;2130;48.472;11.934;2024-02-21T12:28:53;10.10;;;0.80;;
4232;SDS011;2130;48.472;11.934;2024-02-21T12:31:21;9.27;;;0.80;;
4232;SDS011;2130;48.472;11.934;2024-02-21T12:33:49;10.13;;;0.90;;
4232;SDS011;2130;48.472;11.934;2024-02-21T12:36:19;9.20;;;0.90;;
4232;SDS011;2130;48.472;11.934;2024-02-21T12:38:49;10.00;;;0.90;;
4232;SDS011;2130;48.472;11.934;2024-02-21T12:41:17;8.77;;;0.70;;
4232;SDS011;2130;48.472;11.934;2024-02-21T12:43:45;8.70;;;0.77;;
4232;SDS011;2130;48.472;11.934;2024-02-21T12:46:13;8.83;;;0.90;;
4232;SDS011;2130;48.472;11.934;2024-02-21T12:48:41;10.03;;;0.90;;
4232;SDS011;2130;48.472;11.934;2024-02-21T12:51:10;9.37;;;1.00;;
4232;SDS011;2130;48.472;11.934;2024-02-21T12:53:38;8.50;;;0.73;;
4232;SDS011;2130;48.472;11.934;2024-02-21T12:56:07;9.30;;;0.70;;
4232;SDS011;2130;48.472;11.934;2024-02-21T12:58:35;9.40;;;0.90;;
4232;SDS011;2130;48.472;11.934;2024-02-21T13:01:04;8.70;;;0.80;;
4232;SDS011;2130;48.472;11.934;2024-02-21T13:03:32;8.80;;;0.80;;
4232;SDS011;2130;48.472;11.934;2024-02-21T13:06:00;9.30;;;0.97;;
4232;SDS011;2130;48.472;11.934;2024-02-21T13:08:28;8.20;;;0.70;;
4232;SDS011;2130;48.472;11.934;2024-02-21T13:10:56;8.97;;;0.90;;
4232;SDS011;2130;48.472;11.934;2024-02-21T13:13:25;8.60;;;0.83;;
4232;SDS011;2130;48.472;11.934;2024-02-21T13:15:53;8.47;;;0.80;;
4232;SDS011;2130;48.472;11.934;2024-02-21T13:18:21;8.80;;;0.90;;
4232;SDS011;2130;48.472;11.934;2024-02-21T13:20:50;8.43;;;0.90;;
4232;SDS011;2130;48.472;11.934;2024-02-21T13:23:18;7.90;;;0.73;;
4232;SDS011;2130;48.472;11.934;2024-02-21T13:25:47;8.33;;;0.90;;
4232;SDS011;2130;48.472;11.934;2024-02-21T13:28:16;8.43;;;0.80;;
4232;SDS011;2130;48.472;11.934;2024-02-21T13:30:45;8.43;;;0.80;;
4232;SDS011;2130;48.472;11.934;2024-02-21T13:33:14;8.10;;;0.90;;
4232;SDS011;2130;48.472;11.934;2024-02-21T13:35:42;8.10;;;0.80;;
4232;SDS011;2130;48.472;11.934;2024-02-21T13:38:10;8.13;;;0.80;;
4232;SDS011;2130;48.472;11.934;2024-02-21T13:40:39;7.90;;;0.80;;
4232;SDS011;2130;48.472;11.934;2024-02-21T13:43:11;8.70;;;0.90;;
4232;SDS011;2130;48.472;11.934;2024-02-21T13:45:39;8.13;;;0.80;;
4232;SDS011;2130;48.472;11.934;2024-02-21T13:48:10;8.07;;;0.80;;
4232;SDS011;2130;48.472;11.934;2024-02-21T13:50:41;8.37;;;0.93;;
4232;SDS011;2130;48.472;11.934;2024-02-21T13:53:10;7.70;;;0.80;;
4232;SDS011;2130;48.472;11.934;2024-02-21T13:55:38;7.70;;;0.80;;
4232;SDS011;2130;48.472;11.934;2024-02-21T13:58:07;8.03;;;0.80;;
4232;SDS011;2130;48.472;11.934;2024-02-21T14:00:35;7.97;;;0.80;;
4232;SDS011;2130;48.472;11.934;2024-02-21T14:03:03;8.57;;;1.00;;
4232;SDS011;2130;48.472;11.934;2024-02-21T14:05:33;8.13;;;0.80;;
4232;SDS011;2130;48.472;11.934;2024-02-21T14:08:01;8.57;;;1.00;;
4232;SDS011;2130;48.472;11.934;2024-02-21T14:10:30;8.00;;;0.80;;
4232;SDS011;2130;48.472;11.934;2024-02-21T14:12:58;8.37;;;0.83;;
4232;SDS011;2130;48.472;11.934;2024-02-21T14:15:27;7.90;;;0.80;;
4232;SDS011;2130;48.472;11.934;2024-02-21T14:17:55;7.97;;;0.90;;
4232;SDS011;2130;48.472;11.934;2024-02-21T14:20:23;7.40;;;0.77;;
4232;SDS011;2130;48.472;11.934;2024-02-21T14:22:54;7.60;;;0.80;;
4232;SDS011;2130;48.472;11.934;2024-02-21T14:25:22;8.13;;;0.80;;
4232;SDS011;2130;48.472;11.934;2024-02-21T14:27:51;7.93;;;0.80;;
4232;SDS011;2130;48.472;11.934;2024-02-21T14:30:19;7.83;;;0.77;;
4232;SDS011;2130;48.472;11.934;2024-02-21T14:32:47;9.13;;;1.03;;
4232;SDS011;2130;48.472;11.934;2024-02-21T14:35:15;7.40;;;0.70;;
4232;SDS011;2130;48.472;11.934;2024-02-21T14:37:43;7.60;;;0.80;;
4232;SDS011;2130;48.472;11.934;2024-02-21T14:40:13;7.80;;;0.80;;
4232;SDS011;2130;48.472;11.934;2024-02-21T14:42:41;7.87;;;0.80;;
4232;SDS011;2130;48.472;11.934;2024-02-21T14:45:09;7.37;;;0.80;;
4232;SDS011;2130;48.472;11.934;2024-02-21T14:47:38;7.27;;;0.80;;
4232;SDS011;2130;48.472;11.934;2024-02-21T14:50:06;7.97;;;0.80;;
4232;SDS011;2130;48.472;11.934;2024-02-21T14:52:35;7.50;;;0.80;;
4232;SDS011;2130;48.472;11.934;2024-02-21T14:55:04;7.40;;;0.80;;
4232;SDS011;2130;48.472;11.934;2024-02-21T14:57:34;7.70;;;0.80;;
4232;SDS011;2130;48.472;11.934;2024-02-21T15:00:03;7.70;;;0.80;;
4232;SDS011;2130;48.472;11.934;2024-02-21T15:02:34;12.90;;;1.03;;
4232;SDS011;2130;48.472;11.934;2024-02-21T15:05:03;7.73;;;0.80;;
4232;SDS011;2130;48.472;11.934;2024-02-21T15:07:32;7.77;;;0.80;;